« Back
NWS Peachtree City, Ga » Text Product » CSG Terminal Aerodrome Forecast


Printer-friendly Version
Current Version              Previous Versions:   1  2  3  4  5  6  7  8  9  

Terminal Aerodrome Forecast

843
FTUS42 KFFC 212131 AAB
TAFCSG
TAF AMD
KCSG 212131Z 2122/2218 09006KT 6SM HZ OVC012
     FM220300 09005KT 4SM -DZ BR OVC009
     FM220900 08006KT 3SM -DZ BR OVC004
     FM221600 07006KT 4SM -DZ BR OVC006=

USA.gov is the U.S. government's official web portal to all federal, state and local government web resources and services.